createdAt,value
2023-01-12T00:01:41.526Z,3.57
2023-01-12T00:04:08.734Z,3.83
2023-01-12T00:06:35.365Z,3.50
2023-01-12T00:09:03.530Z,4.13
2023-01-12T00:11:30.288Z,4.37
2023-01-12T00:13:57.835Z,2.90
2023-01-12T00:16:43.700Z,3.57
2023-01-12T00:19:18.128Z,2.60
2023-01-12T00:21:58.970Z,2.60
2023-01-12T00:24:30.923Z,2.23
2023-01-12T00:26:59.779Z,3.80
2023-01-12T00:29:27.267Z,3.93
2023-01-12T00:31:54.887Z,3.20
2023-01-12T00:34:22.097Z,2.80
2023-01-12T00:36:49.189Z,2.63
2023-01-12T00:39:16.731Z,2.47
2023-01-12T00:42:02.950Z,2.77
2023-01-12T00:44:48.221Z,3.37
2023-01-12T00:47:15.659Z,3.10
2023-01-12T00:49:42.682Z,2.53
2023-01-12T00:52:18.221Z,2.43
2023-01-12T00:54:51.889Z,2.30
2023-01-12T00:57:19.363Z,2.17
2023-01-12T00:59:46.505Z,3.00
2023-01-12T01:02:13.670Z,2.10
2023-01-12T01:04:40.354Z,2.50
2023-01-12T01:07:07.015Z,2.37
2023-01-12T01:09:34.598Z,2.40
2023-01-12T01:12:01.059Z,1.73
2023-01-12T01:14:27.597Z,2.37
2023-01-12T01:16:54.585Z,2.33
2023-01-12T01:19:21.340Z,1.50
2023-01-12T01:21:47.870Z,2.07
2023-01-12T01:24:14.943Z,1.93
2023-01-12T01:26:42.518Z,2.20
2023-01-12T01:29:09.353Z,2.03
2023-01-12T01:31:35.946Z,2.70
2023-01-12T01:34:03.028Z,2.63
2023-01-12T01:36:29.765Z,2.20
2023-01-12T01:38:56.336Z,2.87
2023-01-12T01:41:29.140Z,2.57
2023-01-12T01:44:04.712Z,2.80
2023-01-12T01:46:42.327Z,2.10
2023-01-12T01:49:24.710Z,1.60
2023-01-12T01:51:54.411Z,2.17
2023-01-12T01:54:21.021Z,2.13
2023-01-12T01:56:47.879Z,2.00
2023-01-12T01:59:17.357Z,2.00
2023-01-12T02:01:44.296Z,1.90
2023-01-12T02:04:11.088Z,2.77
2023-01-12T02:06:37.799Z,1.90
2023-01-12T02:09:14.606Z,1.77
2023-01-12T02:12:03.512Z,1.73
2023-01-12T02:14:48.975Z,1.93
2023-01-12T02:17:40.342Z,1.80
2023-01-12T02:20:27.767Z,2.60
2023-01-12T02:23:09.860Z,2.13
2023-01-12T02:25:51.619Z,2.50
2023-01-12T02:28:49.657Z,2.40
2023-01-12T02:31:22.916Z,2.60
2023-01-12T02:33:54.385Z,2.13
2023-01-12T02:36:20.876Z,2.60
2023-01-12T02:38:58.604Z,3.33
2023-01-12T02:41:50.769Z,3.17
2023-01-12T02:44:33.573Z,2.90
2023-01-12T02:47:01.599Z,2.63
2023-01-12T02:49:31.134Z,3.00
2023-01-12T02:52:01.994Z,2.80
2023-01-12T02:54:28.607Z,2.67
2023-01-12T02:56:56.642Z,2.60
2023-01-12T02:59:27.233Z,3.10
2023-01-12T03:01:56.781Z,4.20
2023-01-12T03:04:23.648Z,4.37
2023-01-12T03:06:56.108Z,3.70
2023-01-12T03:09:37.007Z,5.07
2023-01-12T03:12:06.573Z,4.40
2023-01-12T03:14:35.407Z,4.77
2023-01-12T03:17:05.607Z,3.83
2023-01-12T03:19:33.259Z,4.07
2023-01-12T03:22:03.900Z,4.57
2023-01-12T03:24:35.082Z,4.73
2023-01-12T03:27:15.653Z,3.90
2023-01-12T03:29:50.348Z,4.07
2023-01-12T03:32:18.145Z,5.30
2023-01-12T03:34:45.874Z,3.90
2023-01-12T03:37:18.602Z,3.50
2023-01-12T03:39:54.415Z,3.27
2023-01-12T03:42:43.777Z,4.30
2023-01-12T03:45:19.339Z,3.50
2023-01-12T03:47:47.784Z,3.50
2023-01-12T03:50:17.874Z,3.87
2023-01-12T03:52:45.218Z,4.00
2023-01-12T03:55:18.802Z,4.57
2023-01-12T03:57:46.285Z,4.20
2023-01-12T04:00:13.903Z,4.43
2023-01-12T04:02:43.492Z,3.70
2023-01-12T04:05:10.361Z,3.93
2023-01-12T04:07:36.860Z,3.57
2023-01-12T04:10:03.540Z,3.40
2023-01-12T04:12:30.063Z,3.07
2023-01-12T04:14:56.743Z,2.70
2023-01-12T04:17:25.258Z,2.93
2023-01-12T04:19:52.611Z,2.70
2023-01-12T04:22:38.155Z,2.70
2023-01-12T04:25:05.226Z,3.50
2023-01-12T04:27:32.967Z,2.40
2023-01-12T04:29:59.649Z,2.63
2023-01-12T04:32:26.124Z,3.10
2023-01-12T04:34:52.567Z,5.87
2023-01-12T04:37:19.107Z,2.87
2023-01-12T04:39:46.855Z,2.90
2023-01-12T04:42:32.066Z,2.50
2023-01-12T04:44:58.563Z,2.87
2023-01-12T04:47:25.039Z,2.80
2023-01-12T04:49:51.528Z,3.50
2023-01-12T04:52:18.216Z,2.73
2023-01-12T04:54:44.923Z,3.23
2023-01-12T04:57:11.440Z,3.40
2023-01-12T04:59:37.908Z,3.60
2023-01-12T05:02:04.494Z,3.33
2023-01-12T05:04:31.055Z,2.97
2023-01-12T05:06:57.859Z,2.80
2023-01-12T05:09:42.787Z,2.47
2023-01-12T05:12:09.360Z,2.47
2023-01-12T05:14:35.824Z,2.10
2023-01-12T05:17:02.501Z,2.03
2023-01-12T05:19:29.272Z,2.60
2023-01-12T05:21:55.906Z,2.57
2023-01-12T05:24:22.366Z,2.73
2023-01-12T05:26:48.950Z,2.60
2023-01-12T05:29:15.425Z,2.73
2023-01-12T05:31:41.908Z,1.83
2023-01-12T05:34:09.566Z,2.40
2023-01-12T05:36:36.055Z,2.20
2023-01-12T05:39:04.429Z,3.63
2023-01-12T05:41:30.923Z,3.07
2023-01-12T05:43:57.471Z,2.40
2023-01-12T05:46:26.559Z,2.70
2023-01-12T05:48:54.957Z,3.90
2023-01-12T05:51:23.132Z,3.27
2023-01-12T05:53:49.689Z,2.33
2023-01-12T05:56:21.407Z,2.03
2023-01-12T05:58:53.017Z,2.60
2023-01-12T06:01:20.383Z,2.63
2023-01-12T06:03:51.932Z,2.10
2023-01-12T06:06:19.816Z,1.70
2023-01-12T06:08:46.862Z,1.70
2023-01-12T06:11:32.607Z,1.50
2023-01-12T06:14:00.199Z,1.50
2023-01-12T06:16:27.994Z,1.33
2023-01-12T06:18:54.817Z,1.60
2023-01-12T06:21:21.416Z,2.00
2023-01-12T06:23:48.177Z,1.93
2023-01-12T06:26:14.765Z,1.50
2023-01-12T06:28:42.895Z,1.50
2023-01-12T06:31:11.939Z,1.50
2023-01-12T06:33:38.464Z,2.23
2023-01-12T06:36:05.694Z,1.87
2023-01-12T06:38:34.268Z,1.20
2023-01-12T06:41:05.496Z,1.50
2023-01-12T06:43:32.168Z,1.30
2023-01-12T06:45:59.086Z,1.60
2023-01-12T06:48:38.450Z,1.53
2023-01-12T06:51:06.028Z,1.50
2023-01-12T06:53:32.917Z,1.80
2023-01-12T06:55:59.430Z,2.67
2023-01-12T06:58:26.129Z,3.43
2023-01-12T07:00:52.679Z,1.50
2023-01-12T07:03:20.178Z,1.80
2023-01-12T07:05:47.171Z,1.43
2023-01-12T07:08:16.139Z,1.73
2023-01-12T07:10:43.154Z,2.30
2023-01-12T07:13:09.677Z,1.47
2023-01-12T07:15:36.314Z,1.90
2023-01-12T07:18:03.235Z,1.60
2023-01-12T07:20:30.084Z,1.40
2023-01-12T07:22:56.554Z,1.27
2023-01-12T07:25:25.011Z,0.93
2023-01-12T07:28:21.416Z,0.90
2023-01-12T07:30:48.307Z,0.83
2023-01-12T07:33:18.577Z,0.80
2023-01-12T07:35:45.438Z,1.10
2023-01-12T07:38:12.110Z,1.27
2023-01-12T07:40:38.649Z,1.20
2023-01-12T07:43:07.727Z,1.10
2023-01-12T07:45:34.465Z,1.50
2023-01-12T07:48:01.421Z,1.23
2023-01-12T07:50:28.515Z,1.40
2023-01-12T07:52:55.234Z,1.30
2023-01-12T07:55:21.688Z,1.27
2023-01-12T07:58:06.470Z,1.30
2023-01-12T08:00:33.062Z,0.90
2023-01-12T08:03:06.634Z,1.50
2023-01-12T08:05:34.259Z,1.20
2023-01-12T08:08:03.337Z,1.47
2023-01-12T08:10:30.290Z,1.50
2023-01-12T08:12:56.858Z,2.40
2023-01-12T08:15:24.802Z,3.33
2023-01-12T08:18:05.877Z,2.07
2023-01-12T08:20:35.095Z,2.37
2023-01-12T08:23:13.417Z,2.93
2023-01-12T08:25:44.657Z,2.70
2023-01-12T08:28:16.696Z,2.07
2023-01-12T08:30:45.917Z,1.53
2023-01-12T08:33:12.739Z,2.00
2023-01-12T08:35:39.363Z,1.47
2023-01-12T08:38:05.870Z,1.90
2023-01-12T08:40:51.138Z,1.50
2023-01-12T08:43:37.551Z,1.83
2023-01-12T08:46:07.963Z,1.47
2023-01-12T08:48:36.185Z,1.97
2023-01-12T08:51:04.757Z,2.30
2023-01-12T08:53:31.579Z,1.80
2023-01-12T08:55:58.114Z,1.77
2023-01-12T08:58:24.624Z,1.50
2023-01-12T09:00:51.293Z,1.50
2023-01-12T09:03:18.025Z,1.40
2023-01-12T09:05:45.740Z,1.87
2023-01-12T09:08:12.189Z,1.67
2023-01-12T09:10:38.990Z,1.93
2023-01-12T09:13:05.543Z,1.67
2023-01-12T09:15:32.154Z,1.93
2023-01-12T09:17:58.620Z,1.60
2023-01-12T09:20:25.160Z,1.40
2023-01-12T09:22:51.863Z,1.53
2023-01-12T09:25:18.333Z,1.20
2023-01-12T09:27:44.813Z,1.73
2023-01-12T09:30:12.037Z,2.07
2023-01-12T09:32:38.512Z,1.60
2023-01-12T09:35:05.638Z,1.40
2023-01-12T09:37:32.089Z,1.53
2023-01-12T09:39:59.800Z,1.40
2023-01-12T09:42:44.925Z,1.40
2023-01-12T09:45:41.368Z,1.30
2023-01-12T09:48:11.001Z,1.47
2023-01-12T09:50:41.555Z,1.27
2023-01-12T09:53:21.763Z,1.40
2023-01-12T09:56:04.337Z,1.60
2023-01-12T09:58:55.550Z,1.20
2023-01-12T10:01:29.355Z,1.27
2023-01-12T10:03:58.581Z,1.50
2023-01-12T10:06:25.177Z,1.37
2023-01-12T10:08:55.912Z,1.10
2023-01-12T10:11:27.888Z,1.27
2023-01-12T10:14:00.340Z,2.43
2023-01-12T10:17:04.513Z,1.10
2023-01-12T10:19:47.534Z,1.20
2023-01-12T10:22:38.793Z,1.00
2023-01-12T10:25:26.470Z,1.30
2023-01-12T10:27:55.493Z,1.10
2023-01-12T10:30:31.573Z,1.30
2023-01-12T10:33:08.131Z,1.27
2023-01-12T10:35:34.836Z,1.70
2023-01-12T10:38:14.574Z,1.03
2023-01-12T10:40:41.288Z,1.10
2023-01-12T10:43:20.680Z,1.10
2023-01-12T10:46:03.035Z,1.33
2023-01-12T10:48:30.873Z,1.10
2023-01-12T10:50:59.812Z,1.30
2023-01-12T10:53:30.511Z,0.90
2023-01-12T10:55:57.943Z,1.20
2023-01-12T10:58:30.569Z,1.10
2023-01-12T11:00:57.864Z,1.23
2023-01-12T11:03:33.887Z,1.03
2023-01-12T11:06:24.817Z,1.27
2023-01-12T11:08:51.420Z,1.30
2023-01-12T11:11:23.943Z,1.10
2023-01-12T11:13:55.835Z,1.07
2023-01-12T11:16:28.950Z,1.00
2023-01-12T11:19:16.605Z,0.90
2023-01-12T11:21:54.051Z,1.10
2023-01-12T11:24:44.353Z,1.03
2023-01-12T11:27:16.916Z,0.87
2023-01-12T11:29:55.744Z,0.90
2023-01-12T11:32:45.024Z,1.40
2023-01-12T11:35:32.019Z,0.90
2023-01-12T11:38:03.125Z,1.17
2023-01-12T11:40:40.113Z,0.80
2023-01-12T11:43:28.348Z,1.00
2023-01-12T11:45:59.785Z,0.80
2023-01-12T11:49:13.901Z,1.03
2023-01-12T11:51:41.117Z,1.10
2023-01-12T11:54:12.677Z,1.07
2023-01-12T11:57:02.389Z,0.70
2023-01-12T11:59:41.634Z,1.03
2023-01-12T12:02:30.189Z,0.70
2023-01-12T12:05:00.814Z,0.97
2023-01-12T12:07:39.561Z,0.97
2023-01-12T12:10:25.302Z,1.00
2023-01-12T12:13:07.221Z,0.90
2023-01-12T12:15:46.012Z,1.00
2023-01-12T12:18:31.430Z,0.90
2023-01-12T12:21:25.431Z,0.97
2023-01-12T12:23:58.645Z,1.13
2023-01-12T12:26:32.542Z,0.97
2023-01-12T12:29:41.226Z,1.10
2023-01-12T12:32:13.683Z,1.70
2023-01-12T12:35:12.836Z,2.10
2023-01-12T12:37:51.628Z,0.87
2023-01-12T12:40:25.746Z,1.03
2023-01-12T12:43:24.617Z,1.00
2023-01-12T12:46:05.868Z,1.10
2023-01-12T12:48:38.698Z,1.30
2023-01-12T12:51:07.823Z,1.23
2023-01-12T12:53:49.780Z,1.60
2023-01-12T12:56:18.167Z,0.90
2023-01-12T12:58:56.267Z,1.20
2023-01-12T13:01:27.226Z,1.30
2023-01-12T13:03:55.507Z,1.53
2023-01-12T13:06:25.154Z,1.50
2023-01-12T13:08:53.858Z,1.10
2023-01-12T13:11:20.997Z,1.20
2023-01-12T13:14:01.814Z,1.60
2023-01-12T13:16:31.356Z,1.37
2023-01-12T13:18:57.804Z,1.40
2023-01-12T13:21:27.253Z,1.20
2023-01-12T13:24:05.415Z,1.00
2023-01-12T13:26:35.055Z,1.30
2023-01-12T13:29:24.215Z,1.63
2023-01-12T13:31:52.242Z,1.33
2023-01-12T13:34:37.131Z,1.30
2023-01-12T13:37:19.389Z,1.80
2023-01-12T13:39:52.739Z,1.63
2023-01-12T13:42:39.945Z,1.33
2023-01-12T13:45:11.753Z,1.33
2023-01-12T13:47:38.280Z,1.20
2023-01-12T13:50:05.259Z,1.40
2023-01-12T13:52:34.214Z,1.50
2023-01-12T13:55:01.222Z,1.40
2023-01-12T13:57:30.459Z,1.10
2023-01-12T14:00:09.140Z,2.17
2023-01-12T14:02:36.846Z,1.30
2023-01-12T14:05:33.334Z,1.10
2023-01-12T14:08:11.965Z,0.93
2023-01-12T14:10:46.908Z,0.90
2023-01-12T14:13:21.449Z,1.30
2023-01-12T14:16:06.488Z,1.50
2023-01-12T14:18:44.308Z,1.27
2023-01-12T14:21:33.221Z,1.00
2023-01-12T14:24:26.374Z,1.50
2023-01-12T14:26:52.986Z,0.80
2023-01-12T14:29:19.542Z,1.30
2023-01-12T14:31:50.988Z,1.20
2023-01-12T14:34:29.557Z,1.10
2023-01-12T14:36:56.364Z,1.10
2023-01-12T14:39:25.889Z,1.30
2023-01-12T14:42:13.355Z,1.10
2023-01-12T14:45:07.921Z,1.10
2023-01-12T14:47:35.166Z,1.17
2023-01-12T14:50:14.053Z,1.60
2023-01-12T14:52:42.904Z,1.40
2023-01-12T14:55:19.970Z,1.20
2023-01-12T14:57:54.964Z,1.10
2023-01-12T15:00:22.952Z,1.43
2023-01-12T15:02:51.927Z,1.50
2023-01-12T15:05:22.043Z,1.40
2023-01-12T15:07:58.007Z,1.50
2023-01-12T15:10:32.245Z,1.80
2023-01-12T15:13:18.477Z,1.43
2023-01-12T15:16:03.556Z,1.60
2023-01-12T15:18:48.453Z,1.27
2023-01-12T15:21:33.392Z,1.70
2023-01-12T15:24:18.845Z,1.63
2023-01-12T15:26:46.810Z,1.70
2023-01-12T15:29:16.111Z,1.60
2023-01-12T15:31:42.891Z,1.93
2023-01-12T15:34:10.270Z,1.83
2023-01-12T15:36:36.772Z,1.53
2023-01-12T15:39:03.450Z,1.70
2023-01-12T15:41:49.570Z,1.77
2023-01-12T15:44:18.456Z,1.90
2023-01-12T15:46:44.985Z,1.90
2023-01-12T15:49:15.133Z,1.70
2023-01-12T15:51:42.645Z,2.40
2023-01-12T15:54:12.144Z,2.10
2023-01-12T15:56:38.606Z,1.87
2023-01-12T15:59:05.555Z,2.07
2023-01-12T16:01:38.852Z,2.60
2023-01-12T16:04:40.320Z,2.30
2023-01-12T16:06:54.256Z,1.80
2023-01-12T16:09:20.790Z,1.90
2023-01-12T16:11:47.337Z,1.50
2023-01-12T16:14:14.818Z,1.57
2023-01-12T16:16:41.807Z,1.80
2023-01-12T16:19:09.888Z,1.90
2023-01-12T16:21:36.635Z,1.53
2023-01-12T16:24:03.882Z,1.80
2023-01-12T16:26:30.834Z,1.43
2023-01-12T16:28:57.907Z,1.50
2023-01-12T16:31:25.379Z,1.50
2023-01-12T16:33:51.963Z,1.27
2023-01-12T16:36:18.564Z,1.50
2023-01-12T16:38:45.805Z,1.57
2023-01-12T16:41:15.547Z,1.73
2023-01-12T16:43:42.086Z,1.47
2023-01-12T16:46:08.625Z,1.93
2023-01-12T16:48:35.693Z,1.77
2023-01-12T16:51:02.224Z,1.60
2023-01-12T16:53:28.738Z,1.80
2023-01-12T16:55:55.271Z,1.70
2023-01-12T16:58:21.794Z,2.20
2023-01-12T17:00:48.564Z,1.50
2023-01-12T17:03:15.179Z,1.30
2023-01-12T17:05:42.190Z,1.97
2023-01-12T17:08:09.396Z,1.80
2023-01-12T17:10:36.541Z,2.30
2023-01-12T17:13:03.552Z,1.63
2023-01-12T17:15:30.555Z,1.50
2023-01-12T17:17:57.404Z,1.60
2023-01-12T17:20:24.329Z,1.57
2023-01-12T17:22:51.152Z,1.50
2023-01-12T17:25:18.047Z,1.50
2023-01-12T17:27:44.698Z,1.73
2023-01-12T17:30:11.593Z,1.63
2023-01-12T17:32:39.345Z,1.47
2023-01-12T17:35:09.178Z,1.70
2023-01-12T17:37:36.316Z,1.70
2023-01-12T17:40:03.454Z,1.90
2023-01-12T17:42:48.739Z,1.97
2023-01-12T17:45:15.346Z,2.20
2023-01-12T17:47:41.885Z,2.10
2023-01-12T17:50:09.150Z,1.50
2023-01-12T17:52:35.624Z,2.10
2023-01-12T17:55:02.367Z,1.77
2023-01-12T17:57:29.837Z,1.80
2023-01-12T17:59:56.402Z,1.97
2023-01-12T18:02:23.003Z,1.70
2023-01-12T18:04:49.496Z,1.83
2023-01-12T18:07:16.024Z,1.80
2023-01-12T18:09:42.528Z,1.73
2023-01-12T18:12:10.404Z,1.53
2023-01-12T18:14:37.495Z,2.20
2023-01-12T18:17:04.461Z,2.13
2023-01-12T18:19:31.078Z,2.20
2023-01-12T18:21:57.607Z,9.27
2023-01-12T18:24:24.108Z,6.50
2023-01-12T18:26:50.956Z,6.60
2023-01-12T18:29:17.514Z,3.10
2023-01-12T18:31:47.179Z,2.07
2023-01-12T18:34:16.139Z,1.80
2023-01-12T18:36:42.697Z,2.27
2023-01-12T18:39:13.671Z,2.10
2023-01-12T18:41:58.767Z,1.83
2023-01-12T18:44:25.399Z,1.70
2023-01-12T18:47:10.453Z,2.03
2023-01-12T18:49:37.442Z,1.93
2023-01-12T18:52:23.089Z,1.90
2023-01-12T18:54:51.963Z,1.47
2023-01-12T18:57:22.090Z,1.67
2023-01-12T18:59:51.982Z,1.60
2023-01-12T19:02:19.457Z,1.60
2023-01-12T19:04:49.862Z,1.70
2023-01-12T19:07:17.923Z,1.50
2023-01-12T19:09:46.144Z,1.23
2023-01-12T19:12:12.594Z,1.50
2023-01-12T19:14:57.765Z,1.70
2023-01-12T19:17:27.105Z,1.43
2023-01-12T19:19:54.612Z,2.50
2023-01-12T19:22:39.855Z,2.27
2023-01-12T19:25:25.234Z,4.67
2023-01-12T19:28:10.309Z,2.30
2023-01-12T19:30:39.663Z,1.87
2023-01-12T19:33:10.759Z,1.40
2023-01-12T19:35:37.760Z,1.90
2023-01-12T19:38:04.358Z,1.77
2023-01-12T19:40:43.818Z,1.30
2023-01-12T19:43:20.457Z,1.10
2023-01-12T19:45:49.610Z,1.70
2023-01-12T19:48:17.873Z,1.53
2023-01-12T19:50:44.898Z,1.27
2023-01-12T19:53:21.468Z,1.43
2023-01-12T19:55:50.024Z,1.63
2023-01-12T19:58:17.090Z,1.60
2023-01-12T20:00:50.029Z,1.40
2023-01-12T20:03:22.103Z,1.80
2023-01-12T20:05:52.982Z,1.37
2023-01-12T20:08:21.845Z,1.83
2023-01-12T20:10:56.205Z,1.57
2023-01-12T20:13:23.013Z,1.20
2023-01-12T20:15:50.426Z,1.67
2023-01-12T20:18:18.643Z,1.60
2023-01-12T20:20:45.864Z,1.47
2023-01-12T20:23:14.938Z,1.40
2023-01-12T20:25:42.555Z,1.30
2023-01-12T20:28:11.575Z,1.23
2023-01-12T20:30:40.661Z,1.50
2023-01-12T20:33:09.444Z,1.03
2023-01-12T20:35:38.341Z,1.00
2023-01-12T20:38:06.777Z,1.20
2023-01-12T20:40:33.962Z,1.10
2023-01-12T20:43:00.645Z,1.00
2023-01-12T20:45:27.182Z,1.27
2023-01-12T20:47:55.470Z,1.30
2023-01-12T20:50:23.270Z,1.50
2023-01-12T20:52:52.659Z,1.30
2023-01-12T20:55:21.023Z,1.20
2023-01-12T20:57:47.796Z,1.10
2023-01-12T21:00:14.482Z,0.93
2023-01-12T21:02:40.988Z,1.20
2023-01-12T21:05:08.853Z,1.43
2023-01-12T21:07:35.614Z,1.30
2023-01-12T21:10:02.158Z,1.10
2023-01-12T21:12:28.842Z,1.47
2023-01-12T21:14:55.583Z,1.03
2023-01-12T21:17:22.335Z,1.87
2023-01-12T21:19:48.964Z,1.40
2023-01-12T21:22:15.983Z,1.13
2023-01-12T21:24:42.530Z,1.40
2023-01-12T21:27:09.104Z,1.00
2023-01-12T21:29:36.762Z,1.30
2023-01-12T21:32:03.401Z,1.00
2023-01-12T21:34:30.035Z,1.20
2023-01-12T21:36:57.076Z,1.47
2023-01-12T21:39:23.649Z,1.40
2023-01-12T21:42:09.121Z,1.40
2023-01-12T21:44:35.695Z,1.20
2023-01-12T21:47:02.201Z,1.50
2023-01-12T21:49:28.637Z,1.17
2023-01-12T21:51:55.282Z,1.33
2023-01-12T21:54:22.044Z,1.47
2023-01-12T21:56:48.503Z,1.70
2023-01-12T21:59:14.951Z,1.23
2023-01-12T22:01:41.629Z,1.10
2023-01-12T22:04:09.487Z,0.97
2023-01-12T22:06:36.128Z,1.20
2023-01-12T22:09:02.677Z,1.43
2023-01-12T22:11:29.176Z,1.20
2023-01-12T22:13:57.166Z,1.43
2023-01-12T22:16:23.899Z,1.40
2023-01-12T22:18:51.148Z,1.10
2023-01-12T22:21:19.046Z,1.20
2023-01-12T22:23:46.051Z,1.23
2023-01-12T22:26:14.355Z,1.33
2023-01-12T22:28:42.579Z,0.93
2023-01-12T22:31:20.220Z,0.90
2023-01-12T22:33:48.549Z,1.00
2023-01-12T22:36:15.326Z,1.20
2023-01-12T22:38:42.275Z,1.00
2023-01-12T22:41:10.395Z,1.17
2023-01-12T22:43:42.838Z,1.37
2023-01-12T22:46:27.475Z,1.07
2023-01-12T22:48:55.896Z,1.37
2023-01-12T22:51:26.979Z,1.27
2023-01-12T22:53:54.462Z,1.23
2023-01-12T22:56:21.619Z,1.57
2023-01-12T22:58:49.991Z,1.10
2023-01-12T23:01:17.966Z,1.07
2023-01-12T23:03:45.679Z,1.40
2023-01-12T23:06:13.984Z,1.20
2023-01-12T23:08:40.702Z,1.40
2023-01-12T23:11:15.129Z,1.10
2023-01-12T23:13:42.841Z,1.03
2023-01-12T23:16:11.182Z,0.90
2023-01-12T23:18:38.860Z,1.13
2023-01-12T23:21:13.959Z,1.63
2023-01-12T23:23:42.245Z,1.00
2023-01-12T23:26:10.377Z,0.80
2023-01-12T23:28:41.044Z,0.90
2023-01-12T23:31:10.846Z,0.80
2023-01-12T23:33:38.163Z,1.00
2023-01-12T23:36:07.545Z,0.90
2023-01-12T23:38:34.503Z,0.90
2023-01-12T23:41:21.779Z,0.83
2023-01-12T23:43:49.860Z,0.83
2023-01-12T23:46:19.551Z,1.30
2023-01-12T23:48:46.194Z,1.00
2023-01-12T23:51:12.659Z,1.20
2023-01-12T23:53:39.300Z,1.10
2023-01-12T23:56:08.440Z,0.90
2023-01-12T23:58:35.274Z,1.00
